createdAt,value
2022-08-25T00:01:29.069Z,55.20
2022-08-25T00:03:59.675Z,55.99
2022-08-25T00:06:27.155Z,55.69
2022-08-25T00:08:54.834Z,55.16
2022-08-25T00:11:23.199Z,56.42
2022-08-25T00:13:51.802Z,55.98
2022-08-25T00:16:19.600Z,56.31
2022-08-25T00:18:50.344Z,55.80
2022-08-25T00:21:18.123Z,56.13
2022-08-25T00:23:45.528Z,56.18
2022-08-25T00:26:12.966Z,55.99
2022-08-25T00:28:40.386Z,55.92
2022-08-25T00:31:07.844Z,55.40
2022-08-25T00:33:35.191Z,55.77
2022-08-25T00:36:02.668Z,55.57
2022-08-25T00:38:30.061Z,55.60
2022-08-25T00:41:07.277Z,56.54
2022-08-25T00:43:41.041Z,56.79
2022-08-25T00:46:09.207Z,56.82
2022-08-25T00:48:36.635Z,57.99
2022-08-25T00:51:13.506Z,57.88
2022-08-25T00:53:41.012Z,58.09
2022-08-25T00:56:08.371Z,57.89
2022-08-25T00:58:35.654Z,57.61
2022-08-25T01:01:03.170Z,57.82
2022-08-25T01:03:35.938Z,57.10
2022-08-25T01:08:52.902Z,58.13
2022-08-25T01:11:23.481Z,57.31
2022-08-25T01:13:54.672Z,58.91
2022-08-25T01:16:21.893Z,58.76
2022-08-25T01:18:53.393Z,58.44
2022-08-25T01:21:21.511Z,58.42
2022-08-25T01:23:49.865Z,57.78
2022-08-25T01:26:18.559Z,57.53
2022-08-25T01:29:07.215Z,57.87
2022-08-25T01:31:34.654Z,57.57
2022-08-25T01:34:02.109Z,58.35
2022-08-25T01:36:29.937Z,57.32
2022-08-25T01:38:57.501Z,57.82
2022-08-25T01:41:33.955Z,57.64
2022-08-25T01:44:02.017Z,57.72
2022-08-25T01:46:29.358Z,57.88
2022-08-25T01:48:56.802Z,58.15
2022-08-25T01:51:25.048Z,57.06
2022-08-25T01:53:52.436Z,57.65
2022-08-25T01:56:19.917Z,57.72
2022-08-25T01:58:50.045Z,57.70
2022-08-25T02:01:21.363Z,57.82
2022-08-25T02:03:49.603Z,57.25
2022-08-25T02:06:43.122Z,57.15
2022-08-25T02:09:12.619Z,57.27
2022-08-25T02:11:41.089Z,57.04
2022-08-25T02:14:12.053Z,56.55
2022-08-25T02:16:42.211Z,57.00
2022-08-25T02:19:11.951Z,56.85
2022-08-25T02:21:39.530Z,56.68
2022-08-25T02:24:07.104Z,57.13
2022-08-25T02:26:36.254Z,57.93
2022-08-25T02:29:04.036Z,58.78
2022-08-25T02:31:31.374Z,59.23
2022-08-25T02:33:58.813Z,58.80
2022-08-25T02:36:26.248Z,59.16
2022-08-25T02:38:56.044Z,59.19
2022-08-25T02:41:30.732Z,58.63
2022-08-25T02:44:01.430Z,58.00
2022-08-25T02:46:29.915Z,58.62
2022-08-25T02:48:57.383Z,58.28
2022-08-25T02:51:25.534Z,58.57
2022-08-25T02:53:52.876Z,58.62
2022-08-25T02:56:20.320Z,58.43
2022-08-25T02:58:47.842Z,57.27
2022-08-25T03:01:15.577Z,57.89
2022-08-25T03:03:45.770Z,58.90
2022-08-25T03:06:50.254Z,58.92
2022-08-25T03:09:18.127Z,58.67
2022-08-25T03:11:47.932Z,58.08
2022-08-25T03:14:15.336Z,57.87
2022-08-25T03:16:46.293Z,58.48
2022-08-25T03:19:14.276Z,58.17
2022-08-25T03:21:41.646Z,59.20
2022-08-25T03:24:11.332Z,58.47
2022-08-25T03:26:54.021Z,59.16
2022-08-25T03:29:28.072Z,58.95
2022-08-25T03:31:56.047Z,59.35
2022-08-25T03:34:23.602Z,58.88
2022-08-25T03:36:52.228Z,60.21
2022-08-25T03:39:20.194Z,60.41
2022-08-25T03:41:47.775Z,60.19
2022-08-25T03:44:17.667Z,59.63
2022-08-25T03:46:46.705Z,60.21
2022-08-25T03:49:15.173Z,59.92
2022-08-25T03:52:03.804Z,60.67
2022-08-25T03:54:31.161Z,60.97
2022-08-25T03:56:58.513Z,60.73
2022-08-25T03:59:27.165Z,60.11
2022-08-25T04:01:55.502Z,60.63
2022-08-25T04:04:23.078Z,60.68
2022-08-25T04:07:00.292Z,60.88
2022-08-25T04:09:34.126Z,61.28
2022-08-25T04:12:06.454Z,60.83
2022-08-25T04:14:33.931Z,61.41
2022-08-25T04:17:01.386Z,60.78
2022-08-25T04:19:31.403Z,60.29
2022-08-25T04:21:58.848Z,61.62
2022-08-25T04:24:26.243Z,61.29
2022-08-25T04:26:54.708Z,61.26
2022-08-25T04:29:23.692Z,61.12
2022-08-25T04:31:51.754Z,60.69
2022-08-25T04:34:29.582Z,60.52
2022-08-25T04:37:02.639Z,60.39
2022-08-25T04:39:30.220Z,60.51
2022-08-25T04:41:57.751Z,59.55
2022-08-25T04:44:25.601Z,61.60
2022-08-25T04:46:55.502Z,62.81
2022-08-25T04:49:23.319Z,62.41
2022-08-25T04:51:50.893Z,61.79
2022-08-25T04:54:23.573Z,60.58
2022-08-25T04:56:54.571Z,62.13
2022-08-25T04:59:30.015Z,61.88
2022-08-25T05:01:59.499Z,61.73
2022-08-25T05:04:28.229Z,61.04
2022-08-25T05:07:07.556Z,61.97
2022-08-25T05:09:34.972Z,59.79
2022-08-25T05:12:02.904Z,60.58
2022-08-25T05:14:31.026Z,61.62
2022-08-25T05:17:01.610Z,61.06
2022-08-25T05:19:29.057Z,59.85
2022-08-25T05:21:58.012Z,61.29
2022-08-25T05:24:28.160Z,60.88
2022-08-25T05:26:56.236Z,60.85
2022-08-25T05:29:23.890Z,60.29
2022-08-25T05:31:51.548Z,59.82
2022-08-25T05:34:19.712Z,59.51
2022-08-25T05:36:47.444Z,59.93
2022-08-25T05:39:14.895Z,59.33
2022-08-25T05:41:42.283Z,59.65
2022-08-25T05:44:12.080Z,59.51
2022-08-25T05:46:39.445Z,60.95
2022-08-25T05:49:07.010Z,59.69
2022-08-25T05:51:34.348Z,58.96
2022-08-25T05:54:04.031Z,57.96
2022-08-25T05:56:31.542Z,57.84
2022-08-25T05:59:01.916Z,59.72
2022-08-25T06:01:52.517Z,58.67
2022-08-25T06:04:20.414Z,58.26
2022-08-25T06:07:13.512Z,58.52
2022-08-25T06:09:45.975Z,58.59
2022-08-25T06:12:13.547Z,58.40
2022-08-25T06:14:41.045Z,58.78
2022-08-25T06:17:12.445Z,58.84
2022-08-25T06:20:00.227Z,58.46
2022-08-25T06:22:28.274Z,57.71
2022-08-25T06:24:55.712Z,56.84
2022-08-25T06:27:23.070Z,58.54
2022-08-25T06:29:51.072Z,57.96
2022-08-25T06:32:23.353Z,57.63
2022-08-25T06:34:51.006Z,57.38
2022-08-25T06:37:21.232Z,57.40
2022-08-25T06:39:51.198Z,57.22
2022-08-25T06:42:18.610Z,57.02
2022-08-25T06:44:45.889Z,55.99
2022-08-25T06:47:15.678Z,56.69
2022-08-25T06:49:43.026Z,55.05
2022-08-25T06:52:10.895Z,56.85
2022-08-25T06:54:40.667Z,54.81
2022-08-25T06:57:08.329Z,55.12
2022-08-25T06:59:36.114Z,55.43
2022-08-25T07:02:04.247Z,55.57
2022-08-25T07:04:31.968Z,55.47
2022-08-25T07:07:42.794Z,55.45
2022-08-25T07:10:13.928Z,55.79
2022-08-25T07:12:48.113Z,55.12
2022-08-25T07:15:20.381Z,53.18
2022-08-25T07:17:48.345Z,52.89
2022-08-25T07:20:19.152Z,54.03
2022-08-25T07:22:47.429Z,52.95
2022-08-25T07:25:14.828Z,54.17
2022-08-25T07:27:45.103Z,53.03
2022-08-25T07:30:12.512Z,52.58
2022-08-25T07:32:42.033Z,53.08
2022-08-25T07:35:18.910Z,50.78
2022-08-25T07:37:49.619Z,51.74
2022-08-25T07:40:21.921Z,51.49
2022-08-25T07:42:49.838Z,51.53
2022-08-25T07:45:20.688Z,50.12
2022-08-25T07:47:51.744Z,50.76
2022-08-25T07:50:19.649Z,50.42
2022-08-25T07:52:49.606Z,51.38
2022-08-25T07:55:21.594Z,49.68
2022-08-25T07:57:50.950Z,50.18
2022-08-25T08:00:24.385Z,49.94
2022-08-25T08:02:53.646Z,49.42
2022-08-25T08:05:21.471Z,48.82
2022-08-25T08:08:16.736Z,49.77
2022-08-25T08:11:05.142Z,49.42
2022-08-25T08:13:36.677Z,50.07
2022-08-25T08:16:10.783Z,48.97
2022-08-25T08:18:39.049Z,49.23
2022-08-25T08:21:19.144Z,50.90
2022-08-25T08:23:48.577Z,49.71
2022-08-25T08:26:17.107Z,48.67
2022-08-25T08:28:44.548Z,48.70
2022-08-25T08:31:23.898Z,48.57
2022-08-25T08:33:54.284Z,46.00
2022-08-25T08:36:25.518Z,48.05
2022-08-25T08:38:53.118Z,48.04
2022-08-25T08:42:11.276Z,46.91
2022-08-25T08:44:39.502Z,48.34
2022-08-25T08:47:25.401Z,47.31
2022-08-25T08:50:27.782Z,48.10
2022-08-25T08:53:13.141Z,47.32
2022-08-25T08:55:42.854Z,48.94
2022-08-25T08:58:13.390Z,49.69
2022-08-25T09:00:52.077Z,50.18
2022-08-25T09:03:55.336Z,48.79
2022-08-25T09:06:24.780Z,49.50
2022-08-25T09:08:58.581Z,51.03
2022-08-25T09:11:46.501Z,46.33
2022-08-25T09:14:32.654Z,48.75
2022-08-25T09:17:00.103Z,48.39
2022-08-25T09:19:37.891Z,48.08
2022-08-25T09:22:35.274Z,46.05
2022-08-25T09:25:08.632Z,46.45
2022-08-25T09:27:55.088Z,44.54
2022-08-25T09:30:25.070Z,46.85
2022-08-25T09:33:03.859Z,44.03
2022-08-25T09:35:34.757Z,44.63
2022-08-25T09:38:03.882Z,42.27
2022-08-25T09:40:32.937Z,43.98
2022-08-25T09:43:03.440Z,46.01
2022-08-25T09:45:40.164Z,44.84
2022-08-25T09:48:28.523Z,45.05
2022-08-25T09:51:00.400Z,45.06
2022-08-25T09:53:28.266Z,42.48
2022-08-25T09:56:06.069Z,45.42
2022-08-25T09:58:33.814Z,42.45
2022-08-25T10:01:04.526Z,41.54
2022-08-25T10:03:36.880Z,41.92
2022-08-25T10:06:07.643Z,41.12
2022-08-25T10:11:52.697Z,40.86
2022-08-25T10:14:35.948Z,39.24
2022-08-25T10:17:13.902Z,38.10
2022-08-25T10:19:41.593Z,41.15
2022-08-25T10:22:24.970Z,39.81
2022-08-25T10:24:52.743Z,40.93
2022-08-25T10:27:23.186Z,44.83
2022-08-25T10:29:50.715Z,43.54
2022-08-25T10:32:21.185Z,41.43
2022-08-25T10:34:51.462Z,44.35
2022-08-25T10:37:40.136Z,41.77
2022-08-25T10:40:13.873Z,41.90
2022-08-25T10:43:33.924Z,38.37
2022-08-25T10:46:20.174Z,36.69
2022-08-25T10:48:51.627Z,39.33
2022-08-25T10:51:25.775Z,42.00
2022-08-25T10:54:16.405Z,43.47
2022-08-25T10:57:01.373Z,40.29
2022-08-25T10:59:32.120Z,36.79
2022-08-25T11:02:05.848Z,38.54
2022-08-25T11:04:38.367Z,38.17
2022-08-25T11:07:20.117Z,37.49
2022-08-25T11:09:49.287Z,36.97
2022-08-25T11:12:20.129Z,39.72
2022-08-25T11:14:52.689Z,36.91
2022-08-25T11:17:23.177Z,36.63
2022-08-25T11:19:52.482Z,38.50
2022-08-25T11:22:19.799Z,37.67
2022-08-25T11:25:30.131Z,39.33
2022-08-25T11:27:58.709Z,36.17
2022-08-25T11:30:28.965Z,35.94
2022-08-25T11:32:56.750Z,31.52
2022-08-25T11:35:35.709Z,32.60
2022-08-25T11:38:07.104Z,32.40
2022-08-25T11:40:44.439Z,29.38
2022-08-25T11:43:24.518Z,25.75
2022-08-25T11:46:16.991Z,24.58
2022-08-25T11:48:47.243Z,26.42
2022-08-25T11:51:55.024Z,29.30
2022-08-25T11:54:35.156Z,28.16
2022-08-25T11:57:04.316Z,26.73
2022-08-25T11:59:52.755Z,28.33
2022-08-25T12:02:37.162Z,26.97
2022-08-25T12:05:15.238Z,27.25
2022-08-25T12:13:51.340Z,22.51
2022-08-25T12:16:37.080Z,22.17
2022-08-25T12:19:23.569Z,25.34
2022-08-25T12:21:51.568Z,29.04
2022-08-25T12:24:22.396Z,30.96
2022-08-25T12:26:59.168Z,25.02
2022-08-25T12:29:26.950Z,25.28
2022-08-25T12:31:59.111Z,28.56
2022-08-25T12:34:33.576Z,24.87
2022-08-25T12:37:10.332Z,25.21
2022-08-25T12:39:42.494Z,22.70
2022-08-25T12:42:22.024Z,26.91
2022-08-25T12:45:15.829Z,26.37
2022-08-25T12:47:49.685Z,24.68
2022-08-25T12:50:26.471Z,28.02
2022-08-25T12:52:54.171Z,28.71
2022-08-25T12:55:22.617Z,28.56
2022-08-25T12:57:58.844Z,29.77
2022-08-25T13:03:24.873Z,32.35
2022-08-25T13:06:06.263Z,28.87
2022-08-25T13:11:39.469Z,25.58
2022-08-25T13:14:14.966Z,26.17
2022-08-25T13:16:54.034Z,27.37
2022-08-25T13:19:22.484Z,24.99
2022-08-25T13:21:50.079Z,27.23
2022-08-25T13:24:27.791Z,28.18
2022-08-25T13:26:59.022Z,26.17
2022-08-25T13:29:27.827Z,26.50
2022-08-25T13:31:59.337Z,28.33
2022-08-25T13:34:34.823Z,27.57
2022-08-25T13:37:29.645Z,25.65
2022-08-25T13:40:19.325Z,25.93
2022-08-25T13:42:54.452Z,26.00
2022-08-25T13:45:24.623Z,26.08
2022-08-25T13:47:55.864Z,26.14
2022-08-25T13:50:27.100Z,30.15
2022-08-25T13:52:54.578Z,30.55
2022-08-25T13:55:28.688Z,32.76
2022-08-25T13:57:59.096Z,32.38
2022-08-25T14:00:34.257Z,34.09
2022-08-25T14:03:12.868Z,34.04
2022-08-25T14:05:41.995Z,36.47
2022-08-25T14:08:27.413Z,35.17
2022-08-25T14:11:24.516Z,37.02
2022-08-25T14:13:59.382Z,37.02
2022-08-25T14:16:27.190Z,36.72
2022-08-25T14:18:58.667Z,38.03
2022-08-25T14:21:27.983Z,38.02
2022-08-25T14:23:55.979Z,39.23
2022-08-25T14:26:23.776Z,38.96
2022-08-25T14:28:54.187Z,38.19
2022-08-25T14:31:25.478Z,38.42
2022-08-25T14:33:54.777Z,38.47
2022-08-25T14:36:24.560Z,38.02
2022-08-25T14:38:55.035Z,39.09
2022-08-25T14:41:23.895Z,39.72
2022-08-25T14:43:53.915Z,39.23
2022-08-25T14:46:46.274Z,41.00
2022-08-25T14:49:16.433Z,37.85
2022-08-25T14:51:57.150Z,38.41
2022-08-25T14:54:28.883Z,39.29
2022-08-25T14:59:48.071Z,38.79
2022-08-25T15:02:20.092Z,40.30
2022-08-25T15:04:51.830Z,39.90
2022-08-25T15:07:36.521Z,41.68
2022-08-25T15:10:13.522Z,40.22
2022-08-25T15:12:47.715Z,41.41
2022-08-25T15:15:15.773Z,38.86
2022-08-25T15:17:44.867Z,41.35
2022-08-25T15:20:16.343Z,39.79
2022-08-25T15:22:45.466Z,40.94
2022-08-25T15:25:12.930Z,40.69
2022-08-25T15:27:43.329Z,40.39
2022-08-25T15:30:13.086Z,40.77
2022-08-25T15:32:41.020Z,38.87
2022-08-25T15:35:15.267Z,40.26
2022-08-25T15:37:45.147Z,39.87
2022-08-25T15:40:12.677Z,39.23
2022-08-25T15:42:42.994Z,40.46
2022-08-25T15:45:15.859Z,41.71
2022-08-25T15:47:43.661Z,40.05
2022-08-25T15:50:14.568Z,39.63
2022-08-25T15:52:46.343Z,39.91
2022-08-25T15:55:15.044Z,40.51
2022-08-25T15:57:42.655Z,40.40
2022-08-25T16:00:12.037Z,39.80
2022-08-25T16:02:41.119Z,42.86
2022-08-25T16:05:09.216Z,43.38
2022-08-25T16:07:38.462Z,43.48
2022-08-25T16:10:06.313Z,41.41
2022-08-25T16:12:33.725Z,40.16
2022-08-25T16:15:01.194Z,42.01
2022-08-25T16:17:30.902Z,40.96
2022-08-25T16:19:58.667Z,39.01
2022-08-25T16:22:28.769Z,44.04
2022-08-25T16:24:56.172Z,40.79
2022-08-25T16:27:26.324Z,40.39
2022-08-25T16:29:53.713Z,39.79
2022-08-25T16:32:21.177Z,40.48
2022-08-25T16:34:48.494Z,41.68
2022-08-25T16:37:21.782Z,44.02
2022-08-25T16:39:53.893Z,43.77
2022-08-25T16:42:26.080Z,43.57
2022-08-25T16:44:54.195Z,43.82
2022-08-25T16:47:25.046Z,42.91
2022-08-25T16:49:54.387Z,43.51
2022-08-25T16:52:40.659Z,44.67
2022-08-25T16:55:14.417Z,45.17
2022-08-25T16:57:43.439Z,45.39
2022-08-25T17:00:20.834Z,41.57
2022-08-25T17:02:51.546Z,42.27
2022-08-25T17:05:19.373Z,45.57
2022-08-25T17:08:16.558Z,41.31
2022-08-25T17:10:44.665Z,41.86
2022-08-25T17:13:12.976Z,43.46
2022-08-25T17:15:44.565Z,43.57
2022-08-25T17:18:13.703Z,44.05
2022-08-25T17:20:42.413Z,44.27
2022-08-25T17:23:11.980Z,44.67
2022-08-25T17:25:41.366Z,44.46
2022-08-25T17:28:12.283Z,41.79
2022-08-25T17:30:40.650Z,40.72
2022-08-25T17:33:08.190Z,43.45
2022-08-25T17:35:39.585Z,44.30
2022-08-25T17:38:11.603Z,45.48
2022-08-25T17:40:39.030Z,43.33
2022-08-25T17:43:09.079Z,43.77
2022-08-25T17:45:37.582Z,44.89
2022-08-25T17:48:07.277Z,43.20
2022-08-25T17:50:36.121Z,44.31
2022-08-25T17:53:03.770Z,45.68
2022-08-25T17:55:34.869Z,44.27
2022-08-25T17:58:03.139Z,44.97
2022-08-25T18:01:00.352Z,45.73
2022-08-25T18:03:33.243Z,46.62
2022-08-25T18:06:03.676Z,46.43
2022-08-25T18:08:34.982Z,45.61
2022-08-25T18:11:03.669Z,44.79
2022-08-25T18:13:33.440Z,46.88
2022-08-25T18:16:01.066Z,47.28
2022-08-25T18:18:30.278Z,47.13
2022-08-25T18:20:57.669Z,45.18
2022-08-25T18:23:26.857Z,47.35
2022-08-25T18:26:00.699Z,45.85
2022-08-25T18:28:29.142Z,47.64
2022-08-25T18:30:58.937Z,47.47
2022-08-25T18:33:26.376Z,47.86
2022-08-25T18:35:57.663Z,47.50
2022-08-25T18:38:43.896Z,47.12
2022-08-25T18:41:11.486Z,45.73
2022-08-25T18:43:39.354Z,47.63
2022-08-25T18:46:10.624Z,45.90
2022-08-25T18:48:41.684Z,48.53
2022-08-25T18:51:10.556Z,47.94
2022-08-25T18:53:50.203Z,48.40
2022-08-25T18:56:22.478Z,48.37
2022-08-25T18:58:50.881Z,48.39
2022-08-25T19:01:19.073Z,47.94
2022-08-25T19:03:46.740Z,48.35
2022-08-25T19:06:15.678Z,48.22
2022-08-25T19:08:53.421Z,48.45
2022-08-25T19:11:22.229Z,48.72
2022-08-25T19:13:50.753Z,49.00
2022-08-25T19:16:20.263Z,47.82
2022-08-25T19:18:49.090Z,48.97
2022-08-25T19:21:22.805Z,49.00
2022-08-25T19:23:53.180Z,49.03
2022-08-25T19:26:20.859Z,49.29
2022-08-25T19:28:49.380Z,49.20
2022-08-25T19:31:20.025Z,49.33
2022-08-25T19:33:48.370Z,49.32
2022-08-25T19:36:16.104Z,49.68
2022-08-25T19:38:44.571Z,48.84
2022-08-25T19:41:21.474Z,49.04
2022-08-25T19:43:55.787Z,50.97
2022-08-25T19:46:33.409Z,51.88
2022-08-25T19:49:10.856Z,51.77
2022-08-25T19:51:43.983Z,50.04
2022-08-25T19:54:13.261Z,51.88
2022-08-25T19:56:53.882Z,50.24
2022-08-25T19:59:24.206Z,50.88
2022-08-25T20:01:51.638Z,50.34
2022-08-25T20:04:19.035Z,51.71
2022-08-25T20:06:48.412Z,51.58
2022-08-25T20:09:35.497Z,51.23
2022-08-25T20:12:04.241Z,51.67
2022-08-25T20:14:34.066Z,52.20
2022-08-25T20:17:04.626Z,52.98
2022-08-25T20:19:51.131Z,52.64
2022-08-25T20:22:19.938Z,51.92
2022-08-25T20:24:51.085Z,52.17
2022-08-25T20:27:24.865Z,51.09
2022-08-25T20:29:54.808Z,51.72
2022-08-25T20:32:29.023Z,51.08
2022-08-25T20:34:56.400Z,51.14
2022-08-25T20:37:24.032Z,51.22
2022-08-25T20:43:03.032Z,51.55
2022-08-25T20:45:30.544Z,51.60
2022-08-25T20:48:00.912Z,50.78
2022-08-25T20:50:28.403Z,52.46
2022-08-25T20:52:58.990Z,52.70
2022-08-25T20:55:28.963Z,52.28
2022-08-25T20:57:56.428Z,52.10
2022-08-25T21:00:24.929Z,52.17
2022-08-25T21:02:52.857Z,52.13
2022-08-25T21:05:20.469Z,52.29
2022-08-25T21:07:48.270Z,52.21
2022-08-25T21:10:17.919Z,52.37
2022-08-25T21:12:45.812Z,52.50
2022-08-25T21:15:13.616Z,52.53
2022-08-25T21:17:50.038Z,52.72
2022-08-25T21:20:36.428Z,52.53
2022-08-25T21:23:04.305Z,51.40
2022-08-25T21:25:41.171Z,52.38
2022-08-25T21:28:09.352Z,51.70
2022-08-25T21:30:40.590Z,52.98
2022-08-25T21:33:12.030Z,52.46
2022-08-25T21:35:40.196Z,52.09
2022-08-25T21:38:07.742Z,51.55
2022-08-25T21:40:37.314Z,52.54
2022-08-25T21:43:04.931Z,53.63
2022-08-25T21:45:37.859Z,53.88
2022-08-25T21:48:08.615Z,53.27
2022-08-25T21:50:37.861Z,53.73
2022-08-25T21:53:06.275Z,51.30
2022-08-25T21:55:39.655Z,53.97
2022-08-25T21:58:09.467Z,52.63
2022-08-25T22:00:37.311Z,53.99
2022-08-25T22:03:31.259Z,53.65
2022-08-25T22:06:54.297Z,53.35
2022-08-25T22:09:22.264Z,53.11
2022-08-25T22:16:21.482Z,53.01
2022-08-25T22:18:52.261Z,52.80
2022-08-25T22:29:29.261Z,53.53
2022-08-25T22:35:35.953Z,54.38
2022-08-25T22:38:12.275Z,53.29
2022-08-25T22:40:40.604Z,54.28
2022-08-25T22:43:09.074Z,54.46
2022-08-25T22:45:38.213Z,54.07
2022-08-25T22:48:05.821Z,54.09
2022-08-25T22:50:36.394Z,53.99
2022-08-25T22:53:06.145Z,53.58
2022-08-25T22:55:34.060Z,53.89
2022-08-25T22:58:01.363Z,54.17
2022-08-25T23:00:31.983Z,53.92
2022-08-25T23:02:59.676Z,53.95
2022-08-25T23:05:29.616Z,54.27
2022-08-25T23:07:56.947Z,54.03
2022-08-25T23:10:25.622Z,53.41
2022-08-25T23:12:53.237Z,53.91
2022-08-25T23:15:22.096Z,55.37
2022-08-25T23:17:50.822Z,53.92
2022-08-25T23:20:45.249Z,55.11
2022-08-25T23:23:13.981Z,55.08
2022-08-25T23:26:07.179Z,54.75
2022-08-25T23:28:34.476Z,54.68
2022-08-25T23:31:11.329Z,54.62
2022-08-25T23:33:39.060Z,54.33
2022-08-25T23:36:37.407Z,54.11
2022-08-25T23:39:04.938Z,53.84
2022-08-25T23:41:36.871Z,54.30
2022-08-25T23:44:05.829Z,54.45
2022-08-25T23:46:38.567Z,55.07
2022-08-25T23:49:08.415Z,55.27
2022-08-25T23:51:38.525Z,55.06
2022-08-25T23:54:09.664Z,55.11
2022-08-25T23:56:42.315Z,54.91
2022-08-25T23:59:14.406Z,54.23
